sensor_id;sensor_type;location;lat;lon;timestamp;pressure;altitude;pressure_sealevel;temperature;humidity
61318;BME280;47201;40.428;-8.436;2023-02-01T00:01:47;101897.97;;;3.00;100.00
61318;BME280;47201;40.428;-8.436;2023-02-01T00:03:47;101901.59;;;3.04;100.00
61318;BME280;47201;40.428;-8.436;2023-02-01T00:05:57;101897.81;;;2.97;100.00
61318;BME280;47201;40.428;-8.436;2023-02-01T00:07:58;101903.03;;;2.98;100.00
61318;BME280;47201;40.428;-8.436;2023-02-01T00:09:58;101898.63;;;2.96;100.00
61318;BME280;47201;40.428;-8.436;2023-02-01T00:11:59;101894.63;;;3.03;100.00
61318;BME280;47201;40.428;-8.436;2023-02-01T00:14:01;101892.63;;;3.15;100.00
61318;BME280;47201;40.428;-8.436;2023-02-01T00:16:06;101884.38;;;3.22;100.00
61318;BME280;47201;40.428;-8.436;2023-02-01T00:18:07;101888.88;;;3.26;100.00
61318;BME280;47201;40.428;-8.436;2023-02-01T00:20:07;101888.72;;;3.23;100.00
61318;BME280;47201;40.428;-8.436;2023-02-01T00:22:08;101886.06;;;3.22;100.00
61318;BME280;47201;40.428;-8.436;2023-02-01T00:24:09;101884.66;;;3.28;100.00
61318;BME280;47201;40.428;-8.436;2023-02-01T00:26:17;101879.63;;;3.31;100.00
61318;BME280;47201;40.428;-8.436;2023-02-01T00:28:17;101873.59;;;3.31;100.00
61318;BME280;47201;40.428;-8.436;2023-02-01T00:30:18;101867.53;;;3.30;100.00
61318;BME280;47201;40.428;-8.436;2023-02-01T00:32:18;101870.31;;;3.35;100.00
61318;BME280;47201;40.428;-8.436;2023-02-01T00:34:19;101867.16;;;3.41;100.00
61318;BME280;47201;40.428;-8.436;2023-02-01T00:36:20;101868.09;;;3.43;100.00
61318;BME280;47201;40.428;-8.436;2023-02-01T00:38:21;101867.91;;;3.38;100.00
61318;BME280;47201;40.428;-8.436;2023-02-01T00:40:21;101859.94;;;3.33;100.00
61318;BME280;47201;40.428;-8.436;2023-02-01T00:42:22;101863.44;;;3.36;100.00
61318;BME280;47201;40.428;-8.436;2023-02-01T00:44:22;101860.78;;;3.34;100.00
61318;BME280;47201;40.428;-8.436;2023-02-01T00:46:23;101855.63;;;3.34;100.00
61318;BME280;47201;40.428;-8.436;2023-02-01T00:48:24;101863.53;;;3.37;100.00
61318;BME280;47201;40.428;-8.436;2023-02-01T00:50:24;101859.78;;;3.30;100.00
61318;BME280;47201;40.428;-8.436;2023-02-01T00:52:25;101855.94;;;3.22;100.00
61318;BME280;47201;40.428;-8.436;2023-02-01T00:54:26;101862.53;;;3.15;100.00
61318;BME280;47201;40.428;-8.436;2023-02-01T00:56:27;101863.41;;;3.16;100.00
61318;BME280;47201;40.428;-8.436;2023-02-01T00:58:27;101852.41;;;3.20;100.00
61318;BME280;47201;40.428;-8.436;2023-02-01T01:00:28;101858.25;;;3.16;100.00
61318;BME280;47201;40.428;-8.436;2023-02-01T01:02:29;101861.19;;;3.06;100.00
61318;BME280;47201;40.428;-8.436;2023-02-01T01:04:29;101859.72;;;3.11;100.00
61318;BME280;47201;40.428;-8.436;2023-02-01T01:06:30;101859.22;;;3.00;100.00
61318;BME280;47201;40.428;-8.436;2023-02-01T01:08:32;101852.84;;;2.93;100.00
61318;BME280;47201;40.428;-8.436;2023-02-01T01:10:32;101864.81;;;2.91;100.00
61318;BME280;47201;40.428;-8.436;2023-02-01T01:12:33;101862.53;;;2.97;100.00
61318;BME280;47201;40.428;-8.436;2023-02-01T01:14:34;101865.13;;;2.97;100.00
61318;BME280;47201;40.428;-8.436;2023-02-01T01:16:34;101872.66;;;2.93;100.00
61318;BME280;47201;40.428;-8.436;2023-02-01T01:18:35;101873.16;;;2.85;100.00
61318;BME280;47201;40.428;-8.436;2023-02-01T01:20:37;101868.19;;;2.72;100.00
61318;BME280;47201;40.428;-8.436;2023-02-01T01:22:38;101858.22;;;2.62;100.00
61318;BME280;47201;40.428;-8.436;2023-02-01T01:24:39;101856.22;;;2.56;100.00
61318;BME280;47201;40.428;-8.436;2023-02-01T01:26:40;101854.53;;;2.57;100.00
61318;BME280;47201;40.428;-8.436;2023-02-01T01:28:41;101856.38;;;2.59;100.00
61318;BME280;47201;40.428;-8.436;2023-02-01T01:30:41;101857.66;;;2.67;100.00
61318;BME280;47201;40.428;-8.436;2023-02-01T01:32:42;101853.72;;;2.76;100.00
61318;BME280;47201;40.428;-8.436;2023-02-01T01:34:42;101860.81;;;2.80;100.00
61318;BME280;47201;40.428;-8.436;2023-02-01T01:36:43;101858.19;;;2.78;100.00
61318;BME280;47201;40.428;-8.436;2023-02-01T01:38:43;101868.50;;;2.78;100.00
61318;BME280;47201;40.428;-8.436;2023-02-01T01:40:45;101861.41;;;2.74;100.00
61318;BME280;47201;40.428;-8.436;2023-02-01T01:42:46;101855.88;;;2.66;100.00
61318;BME280;47201;40.428;-8.436;2023-02-01T01:47:05;101859.09;;;2.62;100.00
61318;BME280;47201;40.428;-8.436;2023-02-01T01:49:15;101858.97;;;2.59;100.00
61318;BME280;47201;40.428;-8.436;2023-02-01T01:51:18;101864.03;;;2.58;100.00
61318;BME280;47201;40.428;-8.436;2023-02-01T01:53:20;101857.03;;;2.55;100.00
61318;BME280;47201;40.428;-8.436;2023-02-01T01:55:23;101858.22;;;2.44;100.00
61318;BME280;47201;40.428;-8.436;2023-02-01T01:57:29;101857.00;;;2.37;100.00
61318;BME280;47201;40.428;-8.436;2023-02-01T01:59:31;101861.28;;;2.36;100.00
61318;BME280;47201;40.428;-8.436;2023-02-01T02:01:33;101858.28;;;2.45;100.00
61318;BME280;47201;40.428;-8.436;2023-02-01T02:03:35;101858.81;;;2.56;100.00
61318;BME280;47201;40.428;-8.436;2023-02-01T02:05:38;101862.06;;;2.52;100.00
61318;BME280;47201;40.428;-8.436;2023-02-01T02:07:42;101861.88;;;2.49;100.00
61318;BME280;47201;40.428;-8.436;2023-02-01T02:09:43;101857.47;;;2.46;100.00
61318;BME280;47201;40.428;-8.436;2023-02-01T02:11:44;101860.13;;;2.48;100.00
61318;BME280;47201;40.428;-8.436;2023-02-01T02:13:46;101853.28;;;2.48;100.00
61318;BME280;47201;40.428;-8.436;2023-02-01T02:18:09;101850.00;;;2.34;100.00
61318;BME280;47201;40.428;-8.436;2023-02-01T02:22:29;101851.69;;;2.34;100.00
61318;BME280;47201;40.428;-8.436;2023-02-01T02:24:39;101852.75;;;2.37;100.00
61318;BME280;47201;40.428;-8.436;2023-02-01T02:29:02;101852.38;;;2.48;100.00
61318;BME280;47201;40.428;-8.436;2023-02-01T02:37:43;101850.16;;;2.37;100.00
61318;BME280;47201;40.428;-8.436;2023-02-01T02:39:50;101844.25;;;2.40;100.00
61318;BME280;47201;40.428;-8.436;2023-02-01T02:46:41;101842.69;;;2.26;100.00
61318;BME280;47201;40.428;-8.436;2023-02-01T02:49:07;101849.06;;;2.16;100.00
61318;BME280;47201;40.428;-8.436;2023-02-01T02:51:14;101841.66;;;2.05;100.00
61318;BME280;47201;40.428;-8.436;2023-02-01T02:53:35;101853.56;;;2.03;100.00
61318;BME280;47201;40.428;-8.436;2023-02-01T02:55:57;101858.41;;;1.97;100.00
61318;BME280;47201;40.428;-8.436;2023-02-01T02:58:18;101855.53;;;1.91;100.00
61318;BME280;47201;40.428;-8.436;2023-02-01T03:00:38;101847.47;;;1.85;100.00
61318;BME280;47201;40.428;-8.436;2023-02-01T03:02:58;101848.09;;;1.97;100.00
61318;BME280;47201;40.428;-8.436;2023-02-01T03:05:19;101844.88;;;2.01;100.00
61318;BME280;47201;40.428;-8.436;2023-02-01T03:09:40;101845.53;;;1.97;100.00
61318;BME280;47201;40.428;-8.436;2023-02-01T03:11:41;101842.88;;;1.96;100.00
61318;BME280;47201;40.428;-8.436;2023-02-01T03:14:02;101834.66;;;1.86;100.00
61318;BME280;47201;40.428;-8.436;2023-02-01T03:18:16;101820.78;;;2.01;100.00
61318;BME280;47201;40.428;-8.436;2023-02-01T03:20:19;101822.78;;;2.23;100.00
61318;BME280;47201;40.428;-8.436;2023-02-01T03:22:20;101807.56;;;2.64;100.00
61318;BME280;47201;40.428;-8.436;2023-02-01T03:26:35;101811.38;;;3.46;100.00
61318;BME280;47201;40.428;-8.436;2023-02-01T03:28:38;101793.94;;;3.81;100.00
61318;BME280;47201;40.428;-8.436;2023-02-01T03:30:43;101805.03;;;3.98;100.00
61318;BME280;47201;40.428;-8.436;2023-02-01T03:32:45;101808.34;;;4.36;100.00
61318;BME280;47201;40.428;-8.436;2023-02-01T03:35:06;101798.00;;;4.57;100.00
61318;BME280;47201;40.428;-8.436;2023-02-01T03:37:09;101802.88;;;4.50;100.00
61318;BME280;47201;40.428;-8.436;2023-02-01T03:43:39;101797.91;;;3.33;100.00
61318;BME280;47201;40.428;-8.436;2023-02-01T03:45:43;101800.84;;;3.04;100.00
61318;BME280;47201;40.428;-8.436;2023-02-01T03:47:45;101797.06;;;2.79;100.00
61318;BME280;47201;40.428;-8.436;2023-02-01T03:49:49;101793.63;;;2.60;100.00
61318;BME280;47201;40.428;-8.436;2023-02-01T03:51:50;101784.22;;;2.44;100.00
61318;BME280;47201;40.428;-8.436;2023-02-01T03:53:52;101793.97;;;2.32;100.00
61318;BME280;47201;40.428;-8.436;2023-02-01T03:55:53;101784.16;;;2.43;100.00
61318;BME280;47201;40.428;-8.436;2023-02-01T03:57:57;101790.94;;;2.77;100.00
61318;BME280;47201;40.428;-8.436;2023-02-01T04:00:07;101787.88;;;3.41;100.00
61318;BME280;47201;40.428;-8.436;2023-02-01T04:02:14;101787.09;;;4.03;100.00
61318;BME280;47201;40.428;-8.436;2023-02-01T04:04:15;101781.84;;;4.42;100.00
61318;BME280;47201;40.428;-8.436;2023-02-01T04:06:21;101788.88;;;4.67;100.00
61318;BME280;47201;40.428;-8.436;2023-02-01T04:08:22;101790.06;;;4.75;100.00
61318;BME280;47201;40.428;-8.436;2023-02-01T04:10:23;101779.75;;;4.77;100.00
61318;BME280;47201;40.428;-8.436;2023-02-01T04:12:23;101786.38;;;4.69;100.00
61318;BME280;47201;40.428;-8.436;2023-02-01T04:14:24;101788.50;;;4.58;100.00
61318;BME280;47201;40.428;-8.436;2023-02-01T04:16:24;101781.41;;;4.52;100.00
61318;BME280;47201;40.428;-8.436;2023-02-01T04:18:25;101786.09;;;4.63;100.00
61318;BME280;47201;40.428;-8.436;2023-02-01T04:20:25;101790.47;;;4.64;100.00
61318;BME280;47201;40.428;-8.436;2023-02-01T04:22:26;101787.50;;;4.54;100.00
61318;BME280;47201;40.428;-8.436;2023-02-01T04:24:26;101780.44;;;4.50;100.00
61318;BME280;47201;40.428;-8.436;2023-02-01T04:26:27;101790.88;;;4.31;100.00
61318;BME280;47201;40.428;-8.436;2023-02-01T04:28:28;101786.53;;;4.10;100.00
61318;BME280;47201;40.428;-8.436;2023-02-01T04:30:28;101786.31;;;3.84;100.00
61318;BME280;47201;40.428;-8.436;2023-02-01T04:32:29;101790.41;;;3.59;100.00
61318;BME280;47201;40.428;-8.436;2023-02-01T04:34:30;101788.25;;;3.49;100.00
61318;BME280;47201;40.428;-8.436;2023-02-01T04:36:30;101788.78;;;3.42;100.00
61318;BME280;47201;40.428;-8.436;2023-02-01T04:38:31;101788.16;;;3.28;100.00
61318;BME280;47201;40.428;-8.436;2023-02-01T04:40:32;101791.06;;;3.16;100.00
61318;BME280;47201;40.428;-8.436;2023-02-01T04:42:33;101796.75;;;3.09;100.00
61318;BME280;47201;40.428;-8.436;2023-02-01T04:44:33;101787.22;;;3.08;100.00
61318;BME280;47201;40.428;-8.436;2023-02-01T04:46:34;101790.25;;;3.17;100.00
61318;BME280;47201;40.428;-8.436;2023-02-01T04:48:34;101785.03;;;3.55;100.00
61318;BME280;47201;40.428;-8.436;2023-02-01T04:50:35;101786.38;;;3.86;100.00
61318;BME280;47201;40.428;-8.436;2023-02-01T04:52:36;101783.94;;;4.10;100.00
61318;BME280;47201;40.428;-8.436;2023-02-01T04:54:37;101786.38;;;4.26;100.00
61318;BME280;47201;40.428;-8.436;2023-02-01T04:56:37;101787.16;;;4.45;100.00
61318;BME280;47201;40.428;-8.436;2023-02-01T04:58:38;101782.06;;;4.69;100.00
61318;BME280;47201;40.428;-8.436;2023-02-01T05:00:38;101782.31;;;4.75;100.00
61318;BME280;47201;40.428;-8.436;2023-02-01T05:02:39;101775.72;;;4.84;100.00
61318;BME280;47201;40.428;-8.436;2023-02-01T05:04:39;101776.59;;;4.84;100.00
61318;BME280;47201;40.428;-8.436;2023-02-01T05:06:40;101780.78;;;4.81;100.00
61318;BME280;47201;40.428;-8.436;2023-02-01T05:08:40;101786.53;;;4.73;100.00
61318;BME280;47201;40.428;-8.436;2023-02-01T05:10:41;101784.22;;;4.58;100.00
61318;BME280;47201;40.428;-8.436;2023-02-01T05:12:43;101786.13;;;4.41;100.00
61318;BME280;47201;40.428;-8.436;2023-02-01T05:15:01;101782.47;;;4.15;100.00
61318;BME280;47201;40.428;-8.436;2023-02-01T05:17:02;101780.66;;;3.93;100.00
61318;BME280;47201;40.428;-8.436;2023-02-01T05:19:03;101789.88;;;3.67;100.00
61318;BME280;47201;40.428;-8.436;2023-02-01T05:21:03;101787.00;;;3.41;100.00
61318;BME280;47201;40.428;-8.436;2023-02-01T05:23:04;101786.69;;;3.15;100.00
61318;BME280;47201;40.428;-8.436;2023-02-01T05:25:04;101787.47;;;2.94;100.00
61318;BME280;47201;40.428;-8.436;2023-02-01T05:27:05;101776.94;;;2.72;100.00
61318;BME280;47201;40.428;-8.436;2023-02-01T05:29:06;101783.13;;;2.57;100.00
61318;BME280;47201;40.428;-8.436;2023-02-01T05:31:10;101775.69;;;2.45;100.00
61318;BME280;47201;40.428;-8.436;2023-02-01T05:33:10;101780.97;;;2.30;100.00
61318;BME280;47201;40.428;-8.436;2023-02-01T05:35:11;101781.75;;;2.11;100.00
61318;BME280;47201;40.428;-8.436;2023-02-01T05:37:11;101779.56;;;2.02;100.00
61318;BME280;47201;40.428;-8.436;2023-02-01T05:39:12;101775.66;;;1.93;100.00
61318;BME280;47201;40.428;-8.436;2023-02-01T05:41:12;101770.38;;;1.89;100.00
61318;BME280;47201;40.428;-8.436;2023-02-01T05:43:13;101771.47;;;1.95;100.00
61318;BME280;47201;40.428;-8.436;2023-02-01T05:45:13;101770.41;;;2.08;100.00
61318;BME280;47201;40.428;-8.436;2023-02-01T05:47:14;101770.53;;;2.11;100.00
61318;BME280;47201;40.428;-8.436;2023-02-01T05:49:14;101772.63;;;2.18;100.00
61318;BME280;47201;40.428;-8.436;2023-02-01T05:51:15;101761.69;;;2.40;100.00
61318;BME280;47201;40.428;-8.436;2023-02-01T05:53:15;101764.03;;;2.72;100.00
61318;BME280;47201;40.428;-8.436;2023-02-01T05:55:16;101763.69;;;3.01;100.00
61318;BME280;47201;40.428;-8.436;2023-02-01T05:57:16;101763.59;;;3.38;100.00
61318;BME280;47201;40.428;-8.436;2023-02-01T05:59:17;101763.34;;;3.71;100.00
61318;BME280;47201;40.428;-8.436;2023-02-01T06:01:17;101760.50;;;4.05;100.00
61318;BME280;47201;40.428;-8.436;2023-02-01T06:03:18;101759.91;;;4.55;100.00
61318;BME280;47201;40.428;-8.436;2023-02-01T06:05:19;101747.63;;;4.95;100.00
61318;BME280;47201;40.428;-8.436;2023-02-01T06:07:19;101754.81;;;5.02;100.00
61318;BME280;47201;40.428;-8.436;2023-02-01T06:09:20;101756.13;;;4.90;100.00
61318;BME280;47201;40.428;-8.436;2023-02-01T06:11:20;101758.69;;;4.68;100.00
61318;BME280;47201;40.428;-8.436;2023-02-01T06:13:21;101761.34;;;4.48;100.00
61318;BME280;47201;40.428;-8.436;2023-02-01T06:15:21;101761.69;;;4.35;100.00
61318;BME280;47201;40.428;-8.436;2023-02-01T06:17:22;101758.41;;;4.18;100.00
61318;BME280;47201;40.428;-8.436;2023-02-01T06:19:23;101764.66;;;4.02;100.00
61318;BME280;47201;40.428;-8.436;2023-02-01T06:21:23;101766.03;;;3.93;100.00
61318;BME280;47201;40.428;-8.436;2023-02-01T06:23:24;101764.00;;;3.86;100.00
61318;BME280;47201;40.428;-8.436;2023-02-01T06:25:24;101758.53;;;3.80;100.00
61318;BME280;47201;40.428;-8.436;2023-02-01T06:27:25;101761.78;;;3.74;100.00
61318;BME280;47201;40.428;-8.436;2023-02-01T06:29:25;101753.91;;;3.92;100.00
61318;BME280;47201;40.428;-8.436;2023-02-01T06:31:26;101759.38;;;4.20;100.00
61318;BME280;47201;40.428;-8.436;2023-02-01T06:33:27;101752.19;;;4.56;100.00
61318;BME280;47201;40.428;-8.436;2023-02-01T06:35:27;101754.47;;;4.92;100.00
61318;BME280;47201;40.428;-8.436;2023-02-01T06:37:28;101752.81;;;5.17;100.00
61318;BME280;47201;40.428;-8.436;2023-02-01T06:39:29;101751.72;;;5.35;100.00
61318;BME280;47201;40.428;-8.436;2023-02-01T06:41:30;101754.63;;;5.44;100.00
61318;BME280;47201;40.428;-8.436;2023-02-01T06:43:30;101758.00;;;5.42;100.00
61318;BME280;47201;40.428;-8.436;2023-02-01T06:45:32;101764.31;;;5.24;100.00
61318;BME280;47201;40.428;-8.436;2023-02-01T06:47:33;101766.13;;;5.04;100.00
61318;BME280;47201;40.428;-8.436;2023-02-01T06:49:34;101767.19;;;4.86;100.00
61318;BME280;47201;40.428;-8.436;2023-02-01T06:51:34;101766.81;;;4.77;100.00
61318;BME280;47201;40.428;-8.436;2023-02-01T06:53:34;101770.88;;;4.70;100.00
61318;BME280;47201;40.428;-8.436;2023-02-01T06:55:35;101766.09;;;4.58;100.00
61318;BME280;47201;40.428;-8.436;2023-02-01T06:57:36;101775.13;;;4.47;100.00
61318;BME280;47201;40.428;-8.436;2023-02-01T06:59:36;101779.19;;;4.40;100.00
61318;BME280;47201;40.428;-8.436;2023-02-01T07:01:37;101769.50;;;4.36;100.00
61318;BME280;47201;40.428;-8.436;2023-02-01T07:03:37;101774.44;;;4.51;100.00
61318;BME280;47201;40.428;-8.436;2023-02-01T07:05:38;101781.69;;;4.60;100.00
61318;BME280;47201;40.428;-8.436;2023-02-01T07:07:39;101780.69;;;4.56;100.00
61318;BME280;47201;40.428;-8.436;2023-02-01T07:09:39;101777.03;;;4.51;100.00
61318;BME280;47201;40.428;-8.436;2023-02-01T07:11:41;101781.25;;;4.49;100.00
61318;BME280;47201;40.428;-8.436;2023-02-01T07:13:43;101775.78;;;4.41;100.00
61318;BME280;47201;40.428;-8.436;2023-02-01T07:15:44;101782.66;;;4.41;100.00
61318;BME280;47201;40.428;-8.436;2023-02-01T07:17:46;101784.59;;;4.68;100.00
61318;BME280;47201;40.428;-8.436;2023-02-01T07:19:49;101781.66;;;4.81;100.00
61318;BME280;47201;40.428;-8.436;2023-02-01T07:21:49;101782.13;;;4.93;100.00
61318;BME280;47201;40.428;-8.436;2023-02-01T07:23:50;101785.09;;;5.03;100.00
61318;BME280;47201;40.428;-8.436;2023-02-01T07:25:54;101779.78;;;5.22;100.00
61318;BME280;47201;40.428;-8.436;2023-02-01T07:27:54;101780.84;;;5.28;100.00
61318;BME280;47201;40.428;-8.436;2023-02-01T07:29:55;101787.03;;;5.31;100.00
61318;BME280;47201;40.428;-8.436;2023-02-01T07:31:56;101780.03;;;5.29;100.00
61318;BME280;47201;40.428;-8.436;2023-02-01T07:33:57;101786.78;;;5.25;100.00
61318;BME280;47201;40.428;-8.436;2023-02-01T07:35:59;101786.88;;;5.27;100.00
61318;BME280;47201;40.428;-8.436;2023-02-01T07:38:00;101788.56;;;5.26;100.00
61318;BME280;47201;40.428;-8.436;2023-02-01T07:40:01;101785.09;;;5.26;100.00
61318;BME280;47201;40.428;-8.436;2023-02-01T07:42:01;101793.63;;;5.23;100.00
61318;BME280;47201;40.428;-8.436;2023-02-01T07:44:02;101794.31;;;5.42;100.00
61318;BME280;47201;40.428;-8.436;2023-02-01T07:46:03;101801.41;;;5.70;100.00
61318;BME280;47201;40.428;-8.436;2023-02-01T07:48:04;101802.72;;;6.07;100.00
61318;BME280;47201;40.428;-8.436;2023-02-01T07:50:04;101808.63;;;6.27;98.53
61318;BME280;47201;40.428;-8.436;2023-02-01T07:52:05;101803.09;;;6.44;98.16
61318;BME280;47201;40.428;-8.436;2023-02-01T07:54:06;101798.03;;;6.48;97.18
61318;BME280;47201;40.428;-8.436;2023-02-01T07:56:16;101798.66;;;6.41;96.96
61318;BME280;47201;40.428;-8.436;2023-02-01T07:58:18;101810.59;;;6.34;97.10
61318;BME280;47201;40.428;-8.436;2023-02-01T08:00:19;101808.97;;;6.12;97.99
61318;BME280;47201;40.428;-8.436;2023-02-01T08:02:37;101805.63;;;5.92;99.58
61318;BME280;47201;40.428;-8.436;2023-02-01T08:04:38;101815.78;;;5.86;100.00
61318;BME280;47201;40.428;-8.436;2023-02-01T08:06:39;101813.59;;;5.97;100.00
61318;BME280;47201;40.428;-8.436;2023-02-01T08:08:39;101808.34;;;6.19;100.00
61318;BME280;47201;40.428;-8.436;2023-02-01T08:10:40;101815.41;;;6.24;100.00
61318;BME280;47201;40.428;-8.436;2023-02-01T08:12:40;101814.22;;;6.40;99.85
61318;BME280;47201;40.428;-8.436;2023-02-01T08:14:41;101813.94;;;6.58;99.00
61318;BME280;47201;40.428;-8.436;2023-02-01T08:16:41;101812.94;;;6.80;97.30
61318;BME280;47201;40.428;-8.436;2023-02-01T08:18:42;101808.13;;;6.94;96.40
61318;BME280;47201;40.428;-8.436;2023-02-01T08:20:43;101822.56;;;7.11;95.25
61318;BME280;47201;40.428;-8.436;2023-02-01T08:22:45;101824.97;;;7.34;93.56
61318;BME280;47201;40.428;-8.436;2023-02-01T08:24:49;101820.34;;;8.18;88.33
61318;BME280;47201;40.428;-8.436;2023-02-01T08:26:49;101819.13;;;8.72;83.92
61318;BME280;47201;40.428;-8.436;2023-02-01T08:28:55;101817.28;;;8.68;83.33
61318;BME280;47201;40.428;-8.436;2023-02-01T08:30:57;101827.38;;;8.54;84.04
61318;BME280;47201;40.428;-8.436;2023-02-01T08:32:57;101816.88;;;8.51;84.05
61318;BME280;47201;40.428;-8.436;2023-02-01T08:34:58;101828.31;;;8.58;84.18
61318;BME280;47201;40.428;-8.436;2023-02-01T08:36:58;101829.06;;;9.27;80.50
61318;BME280;47201;40.428;-8.436;2023-02-01T08:39:00;101821.00;;;10.51;73.61
61318;BME280;47201;40.428;-8.436;2023-02-01T08:41:11;101826.09;;;11.00;69.67
61318;BME280;47201;40.428;-8.436;2023-02-01T08:43:12;101834.63;;;10.85;69.51
61318;BME280;47201;40.428;-8.436;2023-02-01T08:45:12;101839.16;;;10.97;68.87
61318;BME280;47201;40.428;-8.436;2023-02-01T08:47:13;101824.19;;;10.87;69.25
61318;BME280;47201;40.428;-8.436;2023-02-01T08:49:14;101831.31;;;10.42;71.28
61318;BME280;47201;40.428;-8.436;2023-02-01T08:51:15;101842.47;;;9.87;73.80
61318;BME280;47201;40.428;-8.436;2023-02-01T08:53:16;101837.44;;;9.52;76.38
61318;BME280;47201;40.428;-8.436;2023-02-01T08:55:16;101841.97;;;9.21;77.82
61318;BME280;47201;40.428;-8.436;2023-02-01T08:57:17;101850.38;;;9.08;79.39
61318;BME280;47201;40.428;-8.436;2023-02-01T08:59:18;101855.22;;;8.92;80.09
61318;BME280;47201;40.428;-8.436;2023-02-01T09:01:18;101854.22;;;8.87;80.79
61318;BME280;47201;40.428;-8.436;2023-02-01T09:03:19;101855.84;;;8.82;81.35
61318;BME280;47201;40.428;-8.436;2023-02-01T09:05:20;101861.91;;;8.81;80.66
61318;BME280;47201;40.428;-8.436;2023-02-01T09:07:22;101856.69;;;8.81;80.97
61318;BME280;47201;40.428;-8.436;2023-02-01T09:09:23;101857.63;;;8.83;81.29
61318;BME280;47201;40.428;-8.436;2023-02-01T09:11:26;101859.50;;;8.88;80.86
61318;BME280;47201;40.428;-8.436;2023-02-01T09:13:27;101868.38;;;8.97;80.20
61318;BME280;47201;40.428;-8.436;2023-02-01T09:15:27;101865.66;;;8.92;80.70
61318;BME280;47201;40.428;-8.436;2023-02-01T09:17:28;101876.34;;;9.03;80.05
61318;BME280;47201;40.428;-8.436;2023-02-01T09:19:29;101871.25;;;9.08;79.14
61318;BME280;47201;40.428;-8.436;2023-02-01T09:21:30;101881.25;;;9.27;78.22
61318;BME280;47201;40.428;-8.436;2023-02-01T09:23:30;101878.78;;;10.19;74.53
61318;BME280;47201;40.428;-8.436;2023-02-01T09:25:31;101871.94;;;11.99;65.03
61318;BME280;47201;40.428;-8.436;2023-02-01T09:27:31;101879.16;;;13.30;58.29
61318;BME280;47201;40.428;-8.436;2023-02-01T09:29:32;101881.38;;;14.98;53.00
61318;BME280;47201;40.428;-8.436;2023-02-01T09:31:32;101888.97;;;16.04;49.06
61318;BME280;47201;40.428;-8.436;2023-02-01T09:33:33;101891.16;;;16.72;47.34
61318;BME280;47201;40.428;-8.436;2023-02-01T09:35:34;101889.72;;;17.35;45.37
61318;BME280;47201;40.428;-8.436;2023-02-01T09:37:34;101897.94;;;17.83;45.38
61318;BME280;47201;40.428;-8.436;2023-02-01T09:39:35;101889.06;;;17.87;44.76
61318;BME280;47201;40.428;-8.436;2023-02-01T09:43:52;101894.28;;;17.97;46.00
61318;BME280;47201;40.428;-8.436;2023-02-01T09:46:09;101891.97;;;17.69;48.00
61318;BME280;47201;40.428;-8.436;2023-02-01T09:48:17;101903.66;;;18.19;48.11
61318;BME280;47201;40.428;-8.436;2023-02-01T09:50:21;101898.44;;;18.16;49.13
61318;BME280;47201;40.428;-8.436;2023-02-01T09:52:25;101905.81;;;18.53;49.82
61318;BME280;47201;40.428;-8.436;2023-02-01T09:54:47;101900.50;;;19.10;49.29
61318;BME280;47201;40.428;-8.436;2023-02-01T09:58:59;101904.53;;;18.78;52.85
61318;BME280;47201;40.428;-8.436;2023-02-01T10:01:02;101911.38;;;18.94;53.33
61318;BME280;47201;40.428;-8.436;2023-02-01T10:03:04;101915.59;;;19.05;53.71
61318;BME280;47201;40.428;-8.436;2023-02-01T10:05:05;101915.78;;;18.94;55.40
61318;BME280;47201;40.428;-8.436;2023-02-01T10:11:51;101924.28;;;19.13;57.59
61318;BME280;47201;40.428;-8.436;2023-02-01T10:14:08;101903.41;;;18.94;58.50
61318;BME280;47201;40.428;-8.436;2023-02-01T10:20:52;101917.25;;;19.57;59.11
61318;BME280;47201;40.428;-8.436;2023-02-01T10:25:04;101917.50;;;20.31;58.45
61318;BME280;47201;40.428;-8.436;2023-02-01T10:27:16;101917.50;;;19.89;59.44
61318;BME280;47201;40.428;-8.436;2023-02-01T10:29:19;101925.00;;;20.12;60.71
61318;BME280;47201;40.428;-8.436;2023-02-01T10:31:21;101920.63;;;20.09;60.82
61318;BME280;47201;40.428;-8.436;2023-02-01T10:33:24;101925.38;;;20.34;60.68
61318;BME280;47201;40.428;-8.436;2023-02-01T10:35:29;101929.03;;;20.66;60.55
61318;BME280;47201;40.428;-8.436;2023-02-01T10:37:32;101928.91;;;21.08;60.30
61318;BME280;47201;40.428;-8.436;2023-02-01T10:39:32;101933.69;;;20.19;62.65
61318;BME280;47201;40.428;-8.436;2023-02-01T10:41:34;101934.41;;;20.63;62.17
61318;BME280;47201;40.428;-8.436;2023-02-01T10:43:35;101927.72;;;20.48;63.00
61318;BME280;47201;40.428;-8.436;2023-02-01T10:45:35;101935.28;;;19.87;65.37
61318;BME280;47201;40.428;-8.436;2023-02-01T10:47:38;101931.22;;;20.50;64.09
61318;BME280;47201;40.428;-8.436;2023-02-01T10:49:41;101948.94;;;20.87;63.53
61318;BME280;47201;40.428;-8.436;2023-02-01T10:51:54;101929.09;;;21.01;63.08
61318;BME280;47201;40.428;-8.436;2023-02-01T10:54:00;101943.38;;;20.59;64.76
61318;BME280;47201;40.428;-8.436;2023-02-01T10:56:05;101943.38;;;20.59;65.48
61318;BME280;47201;40.428;-8.436;2023-02-01T10:58:13;101944.31;;;21.29;64.09
61318;BME280;47201;40.428;-8.436;2023-02-01T11:00:21;101950.84;;;21.17;64.82
61318;BME280;47201;40.428;-8.436;2023-02-01T11:04:28;101951.47;;;22.21;62.22
61318;BME280;47201;40.428;-8.436;2023-02-01T11:06:38;101948.84;;;21.60;64.28
61318;BME280;47201;40.428;-8.436;2023-02-01T11:08:46;101949.94;;;21.51;65.17
61318;BME280;47201;40.428;-8.436;2023-02-01T11:10:49;101948.16;;;21.51;65.53
61318;BME280;47201;40.428;-8.436;2023-02-01T11:12:56;101951.16;;;21.37;66.13
61318;BME280;47201;40.428;-8.436;2023-02-01T11:15:02;101956.69;;;21.64;65.19
61318;BME280;47201;40.428;-8.436;2023-02-01T11:19:19;101955.56;;;21.73;65.92
61318;BME280;47201;40.428;-8.436;2023-02-01T11:21:19;101950.66;;;21.58;65.91
61318;BME280;47201;40.428;-8.436;2023-02-01T11:23:30;101947.38;;;21.81;66.46
61318;BME280;47201;40.428;-8.436;2023-02-01T11:25:33;101950.84;;;21.50;66.58